createdAt,value
2023-10-29T00:04:36.904Z,91.98
2023-10-29T00:09:37.817Z,91.21
2023-10-29T00:14:38.638Z,90.22
2023-10-29T00:19:40.919Z,90.21
2023-10-29T00:24:41.718Z,89.45
2023-10-29T00:29:42.878Z,89.21
2023-10-29T00:34:45.148Z,88.99
2023-10-29T00:39:46.348Z,89.20
2023-10-29T00:44:48.340Z,88.88
2023-10-29T00:49:50.924Z,89.29
2023-10-29T00:54:51.839Z,88.73
2023-10-29T00:59:53.321Z,88.11
2023-10-29T01:04:55.589Z,88.00
2023-10-29T01:09:56.818Z,87.80
2023-10-29T01:14:57.697Z,88.41
2023-10-29T01:20:00.992Z,87.56
2023-10-29T01:25:03.806Z,87.22
2023-10-29T01:30:05.570Z,87.22
2023-10-29T01:35:08.471Z,86.49
2023-10-29T01:40:10.175Z,87.06
2023-10-29T01:45:12.865Z,85.78
2023-10-29T01:50:16.056Z,84.64
2023-10-29T01:55:17.012Z,84.37
2023-10-29T02:00:19.213Z,83.82
2023-10-29T02:05:21.421Z,84.41
2023-10-29T02:10:23.172Z,83.67
2023-10-29T02:15:23.956Z,83.35
2023-10-29T02:20:26.118Z,82.61
2023-10-29T02:25:28.376Z,81.34
2023-10-29T02:30:29.229Z,81.46
2023-10-29T02:35:30.078Z,81.71
2023-10-29T02:40:32.252Z,81.69
2023-10-29T02:45:34.077Z,81.62
2023-10-29T02:50:34.936Z,81.33
2023-10-29T02:55:37.131Z,81.84
2023-10-29T03:00:37.931Z,81.92
2023-10-29T03:05:50.533Z,81.33
2023-10-29T03:10:58.624Z,82.13
2023-10-29T03:15:59.470Z,82.71
2023-10-29T03:21:00.424Z,81.79
2023-10-29T03:26:05.566Z,81.64
2023-10-29T03:31:12.785Z,81.87
2023-10-29T03:36:14.077Z,81.36
2023-10-29T03:41:23.376Z,80.72
2023-10-29T03:46:24.273Z,80.42
2023-10-29T03:51:26.544Z,81.06
2023-10-29T03:56:28.790Z,81.01
2023-10-29T04:01:29.643Z,81.46
2023-10-29T04:06:30.504Z,80.31
2023-10-29T04:11:32.725Z,79.63
2023-10-29T04:16:34.462Z,79.63
2023-10-29T04:21:35.382Z,79.56
2023-10-29T04:26:37.517Z,78.73
2023-10-29T04:31:38.342Z,78.69
2023-10-29T04:36:40.336Z,78.75
2023-10-29T04:41:42.596Z,78.18
2023-10-29T04:46:43.394Z,78.15
2023-10-29T04:51:44.201Z,78.42
2023-10-29T04:56:46.374Z,77.67
2023-10-29T05:01:47.326Z,77.50
2023-10-29T05:06:48.117Z,78.00
2023-10-29T05:11:50.399Z,76.81
2023-10-29T05:16:51.238Z,76.74
2023-10-29T05:21:52.117Z,75.08
2023-10-29T05:26:54.311Z,74.57
2023-10-29T05:31:55.307Z,73.82
2023-10-29T05:36:56.082Z,73.62
2023-10-29T05:41:58.229Z,72.02
2023-10-29T05:46:59.063Z,71.39
2023-10-29T05:51:59.836Z,70.34
2023-10-29T05:57:01.957Z,70.08
2023-10-29T06:02:02.787Z,70.06
2023-10-29T06:07:03.593Z,69.76
2023-10-29T06:12:06.620Z,69.51
2023-10-29T06:17:23.337Z,68.13
2023-10-29T06:22:27.317Z,68.31
2023-10-29T06:27:29.429Z,67.63
2023-10-29T06:32:30.240Z,67.32
2023-10-29T06:37:31.216Z,67.10
2023-10-29T06:42:33.348Z,65.70
2023-10-29T06:47:34.384Z,65.72
2023-10-29T06:52:35.229Z,65.20
2023-10-29T06:57:37.602Z,64.92
2023-10-29T07:02:38.657Z,65.07
2023-10-29T07:07:39.738Z,65.07
2023-10-29T07:12:42.327Z,64.82
2023-10-29T07:17:44.785Z,64.77
2023-10-29T07:22:45.656Z,64.84
2023-10-29T07:27:51.010Z,66.36
2023-10-29T07:32:52.232Z,64.02
2023-10-29T07:37:53.055Z,64.61
2023-10-29T07:42:55.163Z,62.96
2023-10-29T07:47:56.016Z,62.98
2023-10-29T07:52:57.595Z,62.78
2023-10-29T07:57:59.752Z,62.83
2023-10-29T08:03:00.619Z,60.69
2023-10-29T08:08:02.601Z,61.37
2023-10-29T08:13:06.994Z,61.77
2023-10-29T08:18:08.244Z,61.61
2023-10-29T08:23:09.368Z,61.04
2023-10-29T08:28:11.497Z,61.65
2023-10-29T08:33:12.319Z,62.22
2023-10-29T08:38:13.243Z,62.80
2023-10-29T08:43:15.395Z,63.39
2023-10-29T08:48:17.475Z,63.82
2023-10-29T08:53:18.308Z,61.88
2023-10-29T08:58:21.927Z,61.88
2023-10-29T09:03:22.885Z,61.25
2023-10-29T09:08:23.750Z,61.50
2023-10-29T09:13:25.874Z,61.19
2023-10-29T09:18:26.860Z,61.72
2023-10-29T09:23:28.445Z,60.88
2023-10-29T09:28:30.633Z,60.93
2023-10-29T09:33:31.461Z,59.44
2023-10-29T09:38:32.259Z,59.04
2023-10-29T09:43:42.452Z,58.95
2023-10-29T09:48:45.588Z,58.74
2023-10-29T09:53:47.593Z,57.91
2023-10-29T09:58:49.843Z,57.24
2023-10-29T10:03:50.805Z,56.55
2023-10-29T10:08:58.879Z,58.25
2023-10-29T10:14:01.087Z,56.06
2023-10-29T10:19:02.468Z,56.46
2023-10-29T10:24:03.413Z,56.09
2023-10-29T10:29:07.399Z,56.05
2023-10-29T10:34:12.615Z,57.01
2023-10-29T10:39:13.963Z,58.54
2023-10-29T10:44:17.182Z,59.56
2023-10-29T10:49:19.103Z,59.75
2023-10-29T10:54:20.455Z,59.10
2023-10-29T10:59:23.205Z,60.16
2023-10-29T11:04:27.661Z,60.73
2023-10-29T11:09:29.840Z,60.98
2023-10-29T11:14:32.035Z,60.52
2023-10-29T11:19:47.325Z,60.77
2023-10-29T11:25:40.566Z,59.27
2023-10-29T11:30:42.849Z,59.18
2023-10-29T11:35:44.517Z,60.04
2023-10-29T11:40:47.333Z,59.79
2023-10-29T11:45:57.611Z,59.50
2023-10-29T11:51:20.660Z,57.40
2023-10-29T11:56:32.559Z,57.14
2023-10-29T12:01:34.868Z,56.99
2023-10-29T12:06:40.289Z,57.11
2023-10-29T12:11:41.332Z,57.37
2023-10-29T12:16:44.006Z,57.57
2023-10-29T12:21:53.044Z,57.31
2023-10-29T12:26:54.173Z,57.61
2023-10-29T12:31:56.361Z,58.46
2023-10-29T12:36:57.927Z,59.04
2023-10-29T12:41:59.093Z,59.04
2023-10-29T12:47:01.623Z,58.58
2023-10-29T12:52:03.722Z,59.01
2023-10-29T12:57:13.150Z,58.45
2023-10-29T13:02:24.552Z,59.27
2023-10-29T13:07:25.658Z,59.84
2023-10-29T13:12:29.181Z,60.56
2023-10-29T13:17:31.743Z,62.01
2023-10-29T13:22:32.742Z,61.57
2023-10-29T13:27:33.590Z,61.32
2023-10-29T13:32:36.207Z,61.42
2023-10-29T13:37:38.466Z,61.30
2023-10-29T13:42:39.730Z,61.99
2023-10-29T13:47:42.040Z,62.39
2023-10-29T13:52:43.121Z,61.97
2023-10-29T13:57:44.017Z,62.23
2023-10-29T14:02:46.350Z,62.02
2023-10-29T14:07:47.317Z,62.13
2023-10-29T14:12:48.193Z,62.43
2023-10-29T14:17:54.486Z,62.96
2023-10-29T14:22:55.567Z,63.93
2023-10-29T14:27:56.658Z,63.17
2023-10-29T14:32:58.797Z,63.32
2023-10-29T14:37:59.658Z,62.80
2023-10-29T14:43:20.292Z,62.24
2023-10-29T14:48:22.691Z,62.03
2023-10-29T14:53:25.506Z,62.17
2023-10-29T14:58:26.406Z,61.71
2023-10-29T15:03:28.934Z,61.21
2023-10-29T15:08:29.882Z,61.63
2023-10-29T15:13:30.769Z,61.64
2023-10-29T15:18:33.141Z,62.84
2023-10-29T15:23:33.992Z,63.39
2023-10-29T15:28:34.815Z,64.07
2023-10-29T15:33:36.971Z,64.48
2023-10-29T15:38:38.444Z,64.48
2023-10-29T15:43:41.569Z,64.81
2023-10-29T15:48:43.703Z,65.04
2023-10-29T15:53:45.753Z,65.78
2023-10-29T15:58:47.017Z,65.91
2023-10-29T16:03:49.658Z,66.43
2023-10-29T16:08:50.473Z,66.55
2023-10-29T16:13:51.341Z,67.22
2023-10-29T16:18:54.096Z,66.40
2023-10-29T16:23:54.951Z,66.44
2023-10-29T16:28:55.771Z,66.32
2023-10-29T16:33:58.053Z,66.36
2023-10-29T16:38:58.942Z,67.31
2023-10-29T16:44:02.207Z,69.22
2023-10-29T16:49:04.711Z,69.40
2023-10-29T16:54:06.387Z,69.79
2023-10-29T16:59:07.335Z,69.72
2023-10-29T17:04:09.505Z,69.25
2023-10-29T17:09:10.355Z,68.49
2023-10-29T17:14:15.459Z,68.15
2023-10-29T17:19:17.614Z,68.46
2023-10-29T17:24:18.499Z,68.34
2023-10-29T17:29:19.368Z,68.23
2023-10-29T17:34:21.495Z,68.04
2023-10-29T17:39:26.037Z,68.40
2023-10-29T17:44:26.947Z,68.13
2023-10-29T17:49:29.110Z,68.44
2023-10-29T17:54:30.095Z,68.37
2023-10-29T17:59:31.335Z,68.02
2023-10-29T18:04:33.487Z,68.41
2023-10-29T18:09:34.356Z,68.93
2023-10-29T18:14:35.934Z,69.41
2023-10-29T18:19:38.221Z,70.00
2023-10-29T18:24:39.037Z,69.81
2023-10-29T18:29:39.930Z,70.57
2023-10-29T18:34:43.600Z,71.08
2023-10-29T18:39:44.420Z,70.50
2023-10-29T18:44:45.250Z,71.09
2023-10-29T18:49:47.569Z,71.16
2023-10-29T18:54:48.670Z,71.58
2023-10-29T18:59:49.578Z,71.87
2023-10-29T19:04:51.965Z,71.76
2023-10-29T19:09:52.855Z,72.33
2023-10-29T19:14:53.765Z,71.98
2023-10-29T19:19:56.006Z,71.97
2023-10-29T19:24:57.063Z,72.32
2023-10-29T19:29:57.942Z,72.18
2023-10-29T19:35:00.929Z,72.38
2023-10-29T19:40:03.943Z,74.66
2023-10-29T19:45:05.062Z,74.92
2023-10-29T19:50:08.876Z,75.75
2023-10-29T19:55:14.356Z,76.09
2023-10-29T20:00:18.632Z,76.28
2023-10-29T20:05:20.873Z,77.25
2023-10-29T20:10:22.121Z,76.96
2023-10-29T20:15:26.387Z,74.69
2023-10-29T20:20:29.462Z,74.42
2023-10-29T20:25:30.549Z,75.43
2023-10-29T20:30:31.569Z,76.94
2023-10-29T20:35:34.372Z,75.69
2023-10-29T20:40:35.204Z,75.80
2023-10-29T20:45:36.977Z,72.79
2023-10-29T20:50:39.379Z,71.41
2023-10-29T20:55:41.521Z,73.94
2023-10-29T21:00:44.263Z,75.94
2023-10-29T21:05:47.478Z,75.30
2023-10-29T21:10:48.357Z,74.38
2023-10-29T21:15:49.342Z,73.70
2023-10-29T21:20:51.591Z,74.61
2023-10-29T21:25:55.619Z,75.33
2023-10-29T21:30:56.473Z,76.14
2023-10-29T21:35:58.650Z,76.36
2023-10-29T21:41:04.264Z,77.34
2023-10-29T21:46:06.468Z,77.39
2023-10-29T21:51:08.738Z,77.24
2023-10-29T21:56:10.063Z,77.79
2023-10-29T22:01:12.820Z,78.37
2023-10-29T22:06:15.106Z,79.75
2023-10-29T22:11:15.978Z,79.71
2023-10-29T22:16:16.889Z,80.33
2023-10-29T22:21:19.057Z,81.27
2023-10-29T22:26:19.816Z,81.87
2023-10-29T22:31:20.608Z,82.58
2023-10-29T22:36:22.857Z,82.71
2023-10-29T22:41:23.846Z,82.84
2023-10-29T22:46:25.035Z,83.31
2023-10-29T22:51:27.276Z,83.13
2023-10-29T22:56:28.104Z,83.59
2023-10-29T23:01:29.083Z,82.88
2023-10-29T23:06:31.262Z,83.05
2023-10-29T23:11:32.075Z,82.28
2023-10-29T23:16:32.905Z,82.48
2023-10-29T23:21:35.047Z,82.44
2023-10-29T23:26:35.897Z,82.47
2023-10-29T23:31:36.855Z,82.34
2023-10-29T23:36:39.060Z,82.28
2023-10-29T23:41:39.884Z,81.87
2023-10-29T23:46:40.692Z,82.10
2023-10-29T23:51:42.942Z,81.36
2023-10-29T23:56:43.762Z,80.93
